Capitan, New Mexico
Current Conditions -  °F | °C
As of 11:15 PM on Friday 19 Dec 2014 (Local Time) from KSRR Reporting Station
Clear Clear  
Wind Chill: 17°   Ceiling: Unl
Heat Index: 25°   Visibility: 10mi
Dew Point: 16°   Wind: 7mph
Humidity: 69%   Direction: 250°WSW
Pressure: 30.17"   Gusts: NA
Location:  33.55°N, 105.57°W
Report Text: KSRR 200615Z AUTO 25006KT 10SM CLR M04/M09 A3017 RMK AO2
Loading
Personal Weather Stations






























Interactive Weather Map New forecast layout! Learn more

10-Day Weather Forecast

Advertisements
Track Severe Weather on mobile